sensor_id;sensor_type;location;lat;lon;timestamp;P1;durP1;ratioP1;P2;durP2;ratioP2
27163;SDS011;14685;50.618;7.024;2023-04-15T00:01:11;7.57;;;2.40;;
27163;SDS011;14685;50.618;7.024;2023-04-15T00:03:44;9.07;;;2.75;;
27163;SDS011;14685;50.618;7.024;2023-04-15T00:06:12;4.43;;;2.33;;
27163;SDS011;14685;50.618;7.024;2023-04-15T00:08:39;5.60;;;2.55;;
27163;SDS011;14685;50.618;7.024;2023-04-15T00:11:08;7.40;;;2.33;;
27163;SDS011;14685;50.618;7.024;2023-04-15T00:13:36;5.88;;;2.35;;
27163;SDS011;14685;50.618;7.024;2023-04-15T00:16:05;5.05;;;2.58;;
27163;SDS011;14685;50.618;7.024;2023-04-15T00:18:34;5.28;;;2.55;;
27163;SDS011;14685;50.618;7.024;2023-04-15T00:21:02;4.78;;;2.78;;
27163;SDS011;14685;50.618;7.024;2023-04-15T00:23:30;3.30;;;2.40;;
27163;SDS011;14685;50.618;7.024;2023-04-15T00:25:57;4.95;;;2.70;;
27163;SDS011;14685;50.618;7.024;2023-04-15T00:28:27;7.30;;;3.03;;
27163;SDS011;14685;50.618;7.024;2023-04-15T00:30:56;5.63;;;2.55;;
27163;SDS011;14685;50.618;7.024;2023-04-15T00:33:24;5.43;;;2.50;;
27163;SDS011;14685;50.618;7.024;2023-04-15T00:35:51;7.20;;;2.47;;
27163;SDS011;14685;50.618;7.024;2023-04-15T00:38:19;7.32;;;3.05;;
27163;SDS011;14685;50.618;7.024;2023-04-15T00:40:47;6.80;;;2.40;;
27163;SDS011;14685;50.618;7.024;2023-04-15T00:43:15;6.22;;;3.05;;
27163;SDS011;14685;50.618;7.024;2023-04-15T00:45:44;6.07;;;2.75;;
27163;SDS011;14685;50.618;7.024;2023-04-15T00:48:13;6.38;;;2.60;;
27163;SDS011;14685;50.618;7.024;2023-04-15T00:50:41;5.10;;;2.80;;
27163;SDS011;14685;50.618;7.024;2023-04-15T00:53:09;6.32;;;2.33;;
27163;SDS011;14685;50.618;7.024;2023-04-15T00:55:37;4.45;;;2.58;;
27163;SDS011;14685;50.618;7.024;2023-04-15T00:58:05;5.70;;;2.60;;
27163;SDS011;14685;50.618;7.024;2023-04-15T01:00:33;4.35;;;2.60;;
27163;SDS011;14685;50.618;7.024;2023-04-15T01:03:02;6.30;;;2.38;;
27163;SDS011;14685;50.618;7.024;2023-04-15T01:05:29;6.40;;;2.80;;
27163;SDS011;14685;50.618;7.024;2023-04-15T01:07:59;5.35;;;2.70;;
27163;SDS011;14685;50.618;7.024;2023-04-15T01:10:26;5.63;;;2.30;;
27163;SDS011;14685;50.618;7.024;2023-04-15T01:12:53;3.80;;;2.38;;
27163;SDS011;14685;50.618;7.024;2023-04-15T01:15:28;5.22;;;2.63;;
27163;SDS011;14685;50.618;7.024;2023-04-15T01:17:57;9.32;;;2.70;;
27163;SDS011;14685;50.618;7.024;2023-04-15T01:20:26;4.82;;;2.50;;
27163;SDS011;14685;50.618;7.024;2023-04-15T01:22:55;7.07;;;2.78;;
27163;SDS011;14685;50.618;7.024;2023-04-15T01:25:33;6.55;;;2.88;;
27163;SDS011;14685;50.618;7.024;2023-04-15T01:28:00;5.38;;;2.30;;
27163;SDS011;14685;50.618;7.024;2023-04-15T01:30:33;4.45;;;2.15;;
27163;SDS011;14685;50.618;7.024;2023-04-15T01:33:01;4.60;;;2.72;;
27163;SDS011;14685;50.618;7.024;2023-04-15T01:35:29;4.20;;;2.20;;
27163;SDS011;14685;50.618;7.024;2023-04-15T01:38:06;4.93;;;2.58;;
27163;SDS011;14685;50.618;7.024;2023-04-15T01:40:34;5.28;;;2.72;;
27163;SDS011;14685;50.618;7.024;2023-04-15T01:43:01;4.30;;;2.53;;
27163;SDS011;14685;50.618;7.024;2023-04-15T01:45:33;4.53;;;2.10;;
27163;SDS011;14685;50.618;7.024;2023-04-15T01:48:00;5.35;;;2.40;;
27163;SDS011;14685;50.618;7.024;2023-04-15T01:50:27;4.68;;;2.22;;
27163;SDS011;14685;50.618;7.024;2023-04-15T01:52:54;3.20;;;1.83;;
27163;SDS011;14685;50.618;7.024;2023-04-15T01:55:21;5.72;;;2.08;;
27163;SDS011;14685;50.618;7.024;2023-04-15T01:57:52;5.05;;;2.22;;
27163;SDS011;14685;50.618;7.024;2023-04-15T02:00:19;6.53;;;2.00;;
27163;SDS011;14685;50.618;7.024;2023-04-15T02:02:49;3.25;;;1.73;;
27163;SDS011;14685;50.618;7.024;2023-04-15T02:05:16;6.50;;;2.28;;
27163;SDS011;14685;50.618;7.024;2023-04-15T02:07:44;3.63;;;2.35;;
27163;SDS011;14685;50.618;7.024;2023-04-15T02:10:14;4.47;;;2.45;;
27163;SDS011;14685;50.618;7.024;2023-04-15T02:12:42;5.72;;;2.35;;
27163;SDS011;14685;50.618;7.024;2023-04-15T02:15:10;5.82;;;2.45;;
27163;SDS011;14685;50.618;7.024;2023-04-15T02:17:37;5.28;;;2.42;;
27163;SDS011;14685;50.618;7.024;2023-04-15T02:20:04;5.47;;;2.40;;
27163;SDS011;14685;50.618;7.024;2023-04-15T02:22:32;4.70;;;2.13;;
27163;SDS011;14685;50.618;7.024;2023-04-15T02:24:59;5.70;;;2.00;;
27163;SDS011;14685;50.618;7.024;2023-04-15T02:27:27;2.83;;;1.92;;
27163;SDS011;14685;50.618;7.024;2023-04-15T02:29:56;5.47;;;2.20;;
27163;SDS011;14685;50.618;7.024;2023-04-15T02:32:23;3.95;;;2.30;;
27163;SDS011;14685;50.618;7.024;2023-04-15T02:34:51;3.88;;;2.45;;
27163;SDS011;14685;50.618;7.024;2023-04-15T02:37:19;3.28;;;2.55;;
27163;SDS011;14685;50.618;7.024;2023-04-15T02:39:47;5.78;;;2.45;;
27163;SDS011;14685;50.618;7.024;2023-04-15T02:42:14;7.82;;;2.88;;
27163;SDS011;14685;50.618;7.024;2023-04-15T02:44:41;5.15;;;2.55;;
27163;SDS011;14685;50.618;7.024;2023-04-15T02:47:10;4.88;;;2.33;;
27163;SDS011;14685;50.618;7.024;2023-04-15T02:49:37;4.65;;;2.40;;
27163;SDS011;14685;50.618;7.024;2023-04-15T02:52:05;4.85;;;2.40;;
27163;SDS011;14685;50.618;7.024;2023-04-15T02:54:32;3.17;;;2.20;;
27163;SDS011;14685;50.618;7.024;2023-04-15T02:56:59;3.28;;;2.13;;
27163;SDS011;14685;50.618;7.024;2023-04-15T02:59:27;4.03;;;2.30;;
27163;SDS011;14685;50.618;7.024;2023-04-15T03:01:55;4.53;;;2.13;;
27163;SDS011;14685;50.618;7.024;2023-04-15T03:04:26;4.50;;;2.53;;
27163;SDS011;14685;50.618;7.024;2023-04-15T03:06:56;6.57;;;2.53;;
27163;SDS011;14685;50.618;7.024;2023-04-15T03:09:24;5.22;;;2.50;;
27163;SDS011;14685;50.618;7.024;2023-04-15T03:11:51;4.03;;;2.50;;
27163;SDS011;14685;50.618;7.024;2023-04-15T03:14:21;4.38;;;2.47;;
27163;SDS011;14685;50.618;7.024;2023-04-15T03:16:48;4.45;;;2.65;;
27163;SDS011;14685;50.618;7.024;2023-04-15T03:19:17;5.10;;;3.15;;
27163;SDS011;14685;50.618;7.024;2023-04-15T03:21:47;6.70;;;3.60;;
27163;SDS011;14685;50.618;7.024;2023-04-15T03:24:14;10.20;;;3.22;;
27163;SDS011;14685;50.618;7.024;2023-04-15T03:26:41;7.72;;;3.15;;
27163;SDS011;14685;50.618;7.024;2023-04-15T03:29:08;5.97;;;2.97;;
27163;SDS011;14685;50.618;7.024;2023-04-15T03:31:36;5.70;;;2.97;;
27163;SDS011;14685;50.618;7.024;2023-04-15T03:34:03;5.03;;;2.97;;
27163;SDS011;14685;50.618;7.024;2023-04-15T03:36:29;5.88;;;2.60;;
27163;SDS011;14685;50.618;7.024;2023-04-15T03:39:02;9.27;;;2.80;;
27163;SDS011;14685;50.618;7.024;2023-04-15T03:41:29;5.25;;;2.40;;
27163;SDS011;14685;50.618;7.024;2023-04-15T03:43:56;4.53;;;2.22;;
27163;SDS011;14685;50.618;7.024;2023-04-15T03:46:24;3.70;;;2.25;;
27163;SDS011;14685;50.618;7.024;2023-04-15T03:48:53;7.50;;;2.22;;
27163;SDS011;14685;50.618;7.024;2023-04-15T03:51:22;4.20;;;2.40;;
27163;SDS011;14685;50.618;7.024;2023-04-15T03:53:48;4.40;;;2.15;;
27163;SDS011;14685;50.618;7.024;2023-04-15T03:56:15;5.05;;;2.10;;
27163;SDS011;14685;50.618;7.024;2023-04-15T03:58:42;4.10;;;2.05;;
27163;SDS011;14685;50.618;7.024;2023-04-15T04:01:12;4.13;;;2.50;;
27163;SDS011;14685;50.618;7.024;2023-04-15T04:03:38;5.18;;;2.33;;
27163;SDS011;14685;50.618;7.024;2023-04-15T04:06:06;3.75;;;2.40;;
27163;SDS011;14685;50.618;7.024;2023-04-15T04:08:35;3.45;;;2.13;;
27163;SDS011;14685;50.618;7.024;2023-04-15T04:11:06;5.30;;;2.20;;
27163;SDS011;14685;50.618;7.024;2023-04-15T04:13:33;5.10;;;2.35;;
27163;SDS011;14685;50.618;7.024;2023-04-15T04:16:01;10.30;;;2.85;;
27163;SDS011;14685;50.618;7.024;2023-04-15T04:18:30;3.45;;;2.30;;
27163;SDS011;14685;50.618;7.024;2023-04-15T04:20:58;8.27;;;2.90;;
27163;SDS011;14685;50.618;7.024;2023-04-15T04:23:25;5.47;;;2.45;;
27163;SDS011;14685;50.618;7.024;2023-04-15T04:25:52;11.02;;;2.90;;
27163;SDS011;14685;50.618;7.024;2023-04-15T04:28:20;4.50;;;2.45;;
27163;SDS011;14685;50.618;7.024;2023-04-15T04:30:47;3.58;;;2.33;;
27163;SDS011;14685;50.618;7.024;2023-04-15T04:33:14;11.75;;;2.60;;
27163;SDS011;14685;50.618;7.024;2023-04-15T04:35:41;5.95;;;2.45;;
27163;SDS011;14685;50.618;7.024;2023-04-15T04:38:09;3.20;;;2.08;;
27163;SDS011;14685;50.618;7.024;2023-04-15T04:40:36;4.80;;;2.05;;
27163;SDS011;14685;50.618;7.024;2023-04-15T04:43:03;5.50;;;2.50;;
27163;SDS011;14685;50.618;7.024;2023-04-15T04:45:30;7.72;;;3.08;;
27163;SDS011;14685;50.618;7.024;2023-04-15T04:47:57;4.60;;;2.35;;
27163;SDS011;14685;50.618;7.024;2023-04-15T04:50:24;5.78;;;2.38;;
27163;SDS011;14685;50.618;7.024;2023-04-15T04:52:53;5.22;;;2.00;;
27163;SDS011;14685;50.618;7.024;2023-04-15T04:55:19;4.03;;;2.20;;
27163;SDS011;14685;50.618;7.024;2023-04-15T04:57:46;4.22;;;2.47;;
27163;SDS011;14685;50.618;7.024;2023-04-15T05:00:13;5.13;;;2.00;;
27163;SDS011;14685;50.618;7.024;2023-04-15T05:02:40;6.65;;;2.20;;
27163;SDS011;14685;50.618;7.024;2023-04-15T05:05:11;6.55;;;2.15;;
27163;SDS011;14685;50.618;7.024;2023-04-15T05:07:38;8.80;;;2.60;;
27163;SDS011;14685;50.618;7.024;2023-04-15T05:10:06;4.57;;;2.22;;
27163;SDS011;14685;50.618;7.024;2023-04-15T05:12:34;3.03;;;2.00;;
27163;SDS011;14685;50.618;7.024;2023-04-15T05:15:04;3.88;;;2.05;;
27163;SDS011;14685;50.618;7.024;2023-04-15T05:17:32;4.60;;;2.00;;
27163;SDS011;14685;50.618;7.024;2023-04-15T05:20:02;5.20;;;2.05;;
27163;SDS011;14685;50.618;7.024;2023-04-15T05:22:29;5.43;;;2.17;;
27163;SDS011;14685;50.618;7.024;2023-04-15T05:24:59;7.93;;;2.30;;
27163;SDS011;14685;50.618;7.024;2023-04-15T05:27:26;3.53;;;2.15;;
27163;SDS011;14685;50.618;7.024;2023-04-15T05:29:53;4.57;;;2.22;;
27163;SDS011;14685;50.618;7.024;2023-04-15T05:32:19;5.18;;;2.22;;
27163;SDS011;14685;50.618;7.024;2023-04-15T05:34:47;4.90;;;2.40;;
27163;SDS011;14685;50.618;7.024;2023-04-15T05:37:16;6.07;;;3.90;;
27163;SDS011;14685;50.618;7.024;2023-04-15T05:39:43;14.70;;;8.18;;
27163;SDS011;14685;50.618;7.024;2023-04-15T05:42:10;5.78;;;2.58;;
27163;SDS011;14685;50.618;7.024;2023-04-15T05:44:37;4.68;;;4.18;;
27163;SDS011;14685;50.618;7.024;2023-04-15T05:47:06;4.07;;;2.47;;
27163;SDS011;14685;50.618;7.024;2023-04-15T05:49:35;3.35;;;2.28;;
27163;SDS011;14685;50.618;7.024;2023-04-15T05:52:03;4.05;;;2.50;;
27163;SDS011;14685;50.618;7.024;2023-04-15T05:54:30;3.42;;;2.03;;
27163;SDS011;14685;50.618;7.024;2023-04-15T05:56:57;3.50;;;2.40;;
27163;SDS011;14685;50.618;7.024;2023-04-15T05:59:24;8.38;;;2.28;;
27163;SDS011;14685;50.618;7.024;2023-04-15T06:01:51;5.30;;;2.50;;
27163;SDS011;14685;50.618;7.024;2023-04-15T06:04:18;6.22;;;2.78;;
27163;SDS011;14685;50.618;7.024;2023-04-15T06:06:45;3.67;;;2.53;;
27163;SDS011;14685;50.618;7.024;2023-04-15T06:09:12;6.82;;;3.13;;
27163;SDS011;14685;50.618;7.024;2023-04-15T06:11:39;7.80;;;3.45;;
27163;SDS011;14685;50.618;7.024;2023-04-15T06:14:06;6.30;;;3.53;;
27163;SDS011;14685;50.618;7.024;2023-04-15T06:16:33;8.10;;;2.92;;
27163;SDS011;14685;50.618;7.024;2023-04-15T06:19:02;9.05;;;2.80;;
27163;SDS011;14685;50.618;7.024;2023-04-15T06:21:29;7.07;;;2.20;;
27163;SDS011;14685;50.618;7.024;2023-04-15T06:23:57;7.45;;;2.55;;
27163;SDS011;14685;50.618;7.024;2023-04-15T06:26:27;10.38;;;2.60;;
27163;SDS011;14685;50.618;7.024;2023-04-15T06:28:54;8.60;;;3.65;;
27163;SDS011;14685;50.618;7.024;2023-04-15T06:31:21;5.60;;;2.65;;
27163;SDS011;14685;50.618;7.024;2023-04-15T06:33:48;4.35;;;2.33;;
27163;SDS011;14685;50.618;7.024;2023-04-15T06:36:15;3.78;;;2.03;;
27163;SDS011;14685;50.618;7.024;2023-04-15T06:38:41;5.97;;;2.70;;
27163;SDS011;14685;50.618;7.024;2023-04-15T06:41:10;7.10;;;2.85;;
27163;SDS011;14685;50.618;7.024;2023-04-15T06:43:38;5.07;;;2.85;;
27163;SDS011;14685;50.618;7.024;2023-04-15T06:46:05;6.45;;;2.17;;
27163;SDS011;14685;50.618;7.024;2023-04-15T06:48:32;4.88;;;2.50;;
27163;SDS011;14685;50.618;7.024;2023-04-15T06:50:59;4.00;;;2.65;;
27163;SDS011;14685;50.618;7.024;2023-04-15T06:53:26;6.25;;;2.53;;
27163;SDS011;14685;50.618;7.024;2023-04-15T06:55:54;6.50;;;3.03;;
27163;SDS011;14685;50.618;7.024;2023-04-15T06:58:21;4.22;;;2.50;;
27163;SDS011;14685;50.618;7.024;2023-04-15T07:00:49;4.97;;;2.67;;
27163;SDS011;14685;50.618;7.024;2023-04-15T07:03:18;8.02;;;3.03;;
27163;SDS011;14685;50.618;7.024;2023-04-15T07:05:46;5.65;;;2.90;;
27163;SDS011;14685;50.618;7.024;2023-04-15T07:08:14;8.48;;;2.55;;
27163;SDS011;14685;50.618;7.024;2023-04-15T07:10:41;6.32;;;2.67;;
27163;SDS011;14685;50.618;7.024;2023-04-15T07:13:08;5.88;;;2.90;;
27163;SDS011;14685;50.618;7.024;2023-04-15T07:15:35;3.22;;;2.28;;
27163;SDS011;14685;50.618;7.024;2023-04-15T07:18:02;5.55;;;2.58;;
27163;SDS011;14685;50.618;7.024;2023-04-15T07:20:29;6.45;;;2.67;;
27163;SDS011;14685;50.618;7.024;2023-04-15T07:22:56;7.13;;;3.00;;
27163;SDS011;14685;50.618;7.024;2023-04-15T07:25:23;6.70;;;2.40;;
27163;SDS011;14685;50.618;7.024;2023-04-15T07:27:51;4.60;;;2.63;;
27163;SDS011;14685;50.618;7.024;2023-04-15T07:30:21;6.13;;;2.90;;
27163;SDS011;14685;50.618;7.024;2023-04-15T07:32:48;6.38;;;2.88;;
27163;SDS011;14685;50.618;7.024;2023-04-15T07:35:16;7.25;;;2.63;;
27163;SDS011;14685;50.618;7.024;2023-04-15T07:37:44;3.45;;;2.50;;
27163;SDS011;14685;50.618;7.024;2023-04-15T07:40:13;5.40;;;2.67;;
27163;SDS011;14685;50.618;7.024;2023-04-15T07:42:41;6.07;;;3.00;;
27163;SDS011;14685;50.618;7.024;2023-04-15T07:45:09;4.97;;;3.00;;
27163;SDS011;14685;50.618;7.024;2023-04-15T07:47:38;7.35;;;2.95;;
27163;SDS011;14685;50.618;7.024;2023-04-15T07:50:08;6.32;;;2.58;;
27163;SDS011;14685;50.618;7.024;2023-04-15T07:52:36;6.93;;;3.03;;
27163;SDS011;14685;50.618;7.024;2023-04-15T07:55:05;5.25;;;2.90;;
27163;SDS011;14685;50.618;7.024;2023-04-15T07:57:37;15.95;;;3.40;;
27163;SDS011;14685;50.618;7.024;2023-04-15T08:00:04;4.72;;;3.03;;
27163;SDS011;14685;50.618;7.024;2023-04-15T08:02:33;7.13;;;3.42;;
27163;SDS011;14685;50.618;7.024;2023-04-15T08:05:04;6.10;;;3.20;;
27163;SDS011;14685;50.618;7.024;2023-04-15T08:07:37;5.40;;;3.00;;
27163;SDS011;14685;50.618;7.024;2023-04-15T08:10:06;7.18;;;3.38;;
27163;SDS011;14685;50.618;7.024;2023-04-15T08:12:33;7.85;;;3.97;;
27163;SDS011;14685;50.618;7.024;2023-04-15T08:15:00;5.90;;;3.80;;
27163;SDS011;14685;50.618;7.024;2023-04-15T08:17:31;7.80;;;4.13;;
27163;SDS011;14685;50.618;7.024;2023-04-15T08:19:59;8.73;;;4.28;;
27163;SDS011;14685;50.618;7.024;2023-04-15T08:22:27;11.98;;;4.63;;
27163;SDS011;14685;50.618;7.024;2023-04-15T08:24:54;7.03;;;4.55;;
27163;SDS011;14685;50.618;7.024;2023-04-15T08:27:21;6.53;;;4.13;;
27163;SDS011;14685;50.618;7.024;2023-04-15T08:29:48;8.82;;;4.78;;
27163;SDS011;14685;50.618;7.024;2023-04-15T08:32:15;8.68;;;4.45;;
27163;SDS011;14685;50.618;7.024;2023-04-15T08:34:42;8.90;;;4.57;;
27163;SDS011;14685;50.618;7.024;2023-04-15T08:37:10;8.02;;;4.07;;
27163;SDS011;14685;50.618;7.024;2023-04-15T08:39:37;5.43;;;4.25;;
27163;SDS011;14685;50.618;7.024;2023-04-15T08:42:07;9.85;;;4.82;;
27163;SDS011;14685;50.618;7.024;2023-04-15T08:44:42;6.82;;;5.28;;
27163;SDS011;14685;50.618;7.024;2023-04-15T08:47:11;8.10;;;4.20;;
27163;SDS011;14685;50.618;7.024;2023-04-15T08:49:41;9.13;;;4.47;;
27163;SDS011;14685;50.618;7.024;2023-04-15T08:52:08;10.00;;;4.95;;
27163;SDS011;14685;50.618;7.024;2023-04-15T08:54:37;11.18;;;5.35;;
27163;SDS011;14685;50.618;7.024;2023-04-15T08:57:09;11.32;;;5.45;;
27163;SDS011;14685;50.618;7.024;2023-04-15T08:59:38;7.82;;;5.65;;
27163;SDS011;14685;50.618;7.024;2023-04-15T09:02:06;11.60;;;5.65;;
27163;SDS011;14685;50.618;7.024;2023-04-15T09:04:34;9.50;;;5.72;;
27163;SDS011;14685;50.618;7.024;2023-04-15T09:07:01;9.95;;;6.03;;
27163;SDS011;14685;50.618;7.024;2023-04-15T09:09:29;8.80;;;5.78;;
27163;SDS011;14685;50.618;7.024;2023-04-15T09:11:56;11.88;;;5.85;;
27163;SDS011;14685;50.618;7.024;2023-04-15T09:14:27;9.80;;;6.25;;
27163;SDS011;14685;50.618;7.024;2023-04-15T09:17:02;13.18;;;6.88;;
27163;SDS011;14685;50.618;7.024;2023-04-15T09:19:30;11.63;;;6.50;;
27163;SDS011;14685;50.618;7.024;2023-04-15T09:21:59;10.75;;;6.03;;
27163;SDS011;14685;50.618;7.024;2023-04-15T09:24:38;9.57;;;6.70;;
27163;SDS011;14685;50.618;7.024;2023-04-15T09:27:08;9.30;;;6.60;;
27163;SDS011;14685;50.618;7.024;2023-04-15T09:29:40;8.50;;;7.22;;
27163;SDS011;14685;50.618;7.024;2023-04-15T09:32:13;9.20;;;6.75;;
27163;SDS011;14685;50.618;7.024;2023-04-15T09:34:43;11.35;;;7.20;;
27163;SDS011;14685;50.618;7.024;2023-04-15T09:37:11;9.10;;;7.43;;
27163;SDS011;14685;50.618;7.024;2023-04-15T09:39:57;8.48;;;7.30;;
27163;SDS011;14685;50.618;7.024;2023-04-15T09:42:24;14.80;;;7.97;;
27163;SDS011;14685;50.618;7.024;2023-04-15T09:45:08;10.43;;;7.43;;
27163;SDS011;14685;50.618;7.024;2023-04-15T09:47:37;11.80;;;7.57;;
27163;SDS011;14685;50.618;7.024;2023-04-15T09:50:05;12.95;;;7.75;;
27163;SDS011;14685;50.618;7.024;2023-04-15T09:52:32;9.10;;;7.07;;
27163;SDS011;14685;50.618;7.024;2023-04-15T09:55:09;10.32;;;8.05;;
27163;SDS011;14685;50.618;7.024;2023-04-15T09:57:38;14.93;;;8.68;;
27163;SDS011;14685;50.618;7.024;2023-04-15T10:00:07;11.38;;;7.90;;
27163;SDS011;14685;50.618;7.024;2023-04-15T10:02:37;14.48;;;8.48;;
27163;SDS011;14685;50.618;7.024;2023-04-15T10:05:06;17.30;;;9.13;;
27163;SDS011;14685;50.618;7.024;2023-04-15T10:07:35;13.55;;;9.07;;
27163;SDS011;14685;50.618;7.024;2023-04-15T10:10:04;12.82;;;9.68;;
27163;SDS011;14685;50.618;7.024;2023-04-15T10:12:36;13.30;;;8.65;;
27163;SDS011;14685;50.618;7.024;2023-04-15T10:15:06;14.23;;;8.77;;
27163;SDS011;14685;50.618;7.024;2023-04-15T10:17:43;11.88;;;8.27;;
27163;SDS011;14685;50.618;7.024;2023-04-15T10:20:12;11.18;;;6.78;;
27163;SDS011;14685;50.618;7.024;2023-04-15T10:22:41;11.55;;;7.90;;
27163;SDS011;14685;50.618;7.024;2023-04-15T10:25:10;11.32;;;7.70;;
27163;SDS011;14685;50.618;7.024;2023-04-15T10:27:39;9.80;;;7.28;;
27163;SDS011;14685;50.618;7.024;2023-04-15T10:30:07;5.57;;;5.00;;
27163;SDS011;14685;50.618;7.024;2023-04-15T10:32:34;5.38;;;3.35;;
27163;SDS011;14685;50.618;7.024;2023-04-15T10:35:04;6.10;;;2.50;;
27163;SDS011;14685;50.618;7.024;2023-04-15T10:37:33;4.53;;;2.55;;
27163;SDS011;14685;50.618;7.024;2023-04-15T10:42:59;5.28;;;2.83;;
27163;SDS011;14685;50.618;7.024;2023-04-15T10:45:33;4.03;;;2.28;;
27163;SDS011;14685;50.618;7.024;2023-04-15T10:48:03;4.95;;;1.90;;
27163;SDS011;14685;50.618;7.024;2023-04-15T10:50:32;4.50;;;2.08;;
27163;SDS011;14685;50.618;7.024;2023-04-15T10:53:01;4.75;;;2.00;;
27163;SDS011;14685;50.618;7.024;2023-04-15T10:55:31;3.60;;;2.30;;
27163;SDS011;14685;50.618;7.024;2023-04-15T10:58:00;2.50;;;1.73;;
27163;SDS011;14685;50.618;7.024;2023-04-15T11:00:28;4.78;;;2.40;;
27163;SDS011;14685;50.618;7.024;2023-04-15T11:03:07;3.88;;;2.20;;
27163;SDS011;14685;50.618;7.024;2023-04-15T11:08:07;2.78;;;2.33;;
27163;SDS011;14685;50.618;7.024;2023-04-15T11:13:14;4.00;;;2.63;;
27163;SDS011;14685;50.618;7.024;2023-04-15T11:15:44;2.42;;;2.17;;
27163;SDS011;14685;50.618;7.024;2023-04-15T11:18:13;3.25;;;2.50;;
27163;SDS011;14685;50.618;7.024;2023-04-15T11:21:01;2.45;;;2.22;;
27163;SDS011;14685;50.618;7.024;2023-04-15T11:23:39;2.80;;;2.47;;
27163;SDS011;14685;50.618;7.024;2023-04-15T11:26:14;5.18;;;3.40;;
27163;SDS011;14685;50.618;7.024;2023-04-15T11:28:42;6.07;;;3.30;;
27163;SDS011;14685;50.618;7.024;2023-04-15T11:31:14;3.35;;;3.00;;
27163;SDS011;14685;50.618;7.024;2023-04-15T11:33:44;7.90;;;2.72;;
27163;SDS011;14685;50.618;7.024;2023-04-15T11:36:22;5.32;;;4.00;;
27163;SDS011;14685;50.618;7.024;2023-04-15T11:38:53;5.33;;;3.67;;
27163;SDS011;14685;50.618;7.024;2023-04-15T11:41:21;4.47;;;3.90;;
27163;SDS011;14685;50.618;7.024;2023-04-15T11:43:49;5.40;;;3.67;;
27163;SDS011;14685;50.618;7.024;2023-04-15T11:46:17;5.13;;;3.75;;
27163;SDS011;14685;50.618;7.024;2023-04-15T11:48:45;3.40;;;2.90;;
27163;SDS011;14685;50.618;7.024;2023-04-15T11:51:12;4.13;;;3.65;;
27163;SDS011;14685;50.618;7.024;2023-04-15T11:53:43;4.55;;;3.58;;
27163;SDS011;14685;50.618;7.024;2023-04-15T11:56:18;6.20;;;3.25;;
27163;SDS011;14685;50.618;7.024;2023-04-15T11:58:46;3.70;;;3.33;;
27163;SDS011;14685;50.618;7.024;2023-04-15T12:01:16;6.53;;;3.90;;
27163;SDS011;14685;50.618;7.024;2023-04-15T12:03:47;4.60;;;3.83;;
27163;SDS011;14685;50.618;7.024;2023-04-15T12:08:55;4.55;;;3.80;;
27163;SDS011;14685;50.618;7.024;2023-04-15T12:14:08;5.82;;;4.15;;
27163;SDS011;14685;50.618;7.024;2023-04-15T12:16:42;3.58;;;3.28;;
27163;SDS011;14685;50.618;7.024;2023-04-15T12:19:24;4.00;;;3.28;;
27163;SDS011;14685;50.618;7.024;2023-04-15T12:22:00;5.13;;;3.10;;
27163;SDS011;14685;50.618;7.024;2023-04-15T12:24:30;4.85;;;3.10;;
27163;SDS011;14685;50.618;7.024;2023-04-15T12:27:02;4.35;;;3.10;;
27163;SDS011;14685;50.618;7.024;2023-04-15T12:29:31;4.63;;;2.75;;
27163;SDS011;14685;50.618;7.024;2023-04-15T12:32:12;3.42;;;3.13;;
27163;SDS011;14685;50.618;7.024;2023-04-15T12:34:43;3.45;;;3.15;;
27163;SDS011;14685;50.618;7.024;2023-04-15T12:37:16;3.95;;;3.15;;
27163;SDS011;14685;50.618;7.024;2023-04-15T12:39:46;3.75;;;3.20;;
27163;SDS011;14685;50.618;7.024;2023-04-15T12:42:15;2.95;;;2.75;;
27163;SDS011;14685;50.618;7.024;2023-04-15T12:44:42;4.97;;;3.20;;
27163;SDS011;14685;50.618;7.024;2023-04-15T12:47:12;4.47;;;3.25;;
27163;SDS011;14685;50.618;7.024;2023-04-15T12:49:39;3.33;;;3.13;;
27163;SDS011;14685;50.618;7.024;2023-04-15T12:52:06;3.70;;;3.40;;
27163;SDS011;14685;50.618;7.024;2023-04-15T12:54:34;3.78;;;3.45;;
27163;SDS011;14685;50.618;7.024;2023-04-15T12:57:04;3.50;;;3.20;;
27163;SDS011;14685;50.618;7.024;2023-04-15T12:59:33;3.30;;;3.10;;
27163;SDS011;14685;50.618;7.024;2023-04-15T13:02:00;3.80;;;2.67;;
27163;SDS011;14685;50.618;7.024;2023-04-15T13:04:28;3.60;;;3.30;;
27163;SDS011;14685;50.618;7.024;2023-04-15T13:06:58;3.97;;;3.55;;
27163;SDS011;14685;50.618;7.024;2023-04-15T13:09:25;5.63;;;3.88;;
27163;SDS011;14685;50.618;7.024;2023-04-15T13:11:53;4.35;;;3.95;;
27163;SDS011;14685;50.618;7.024;2023-04-15T13:14:23;5.55;;;5.03;;
27163;SDS011;14685;50.618;7.024;2023-04-15T13:16:50;4.97;;;4.47;;
27163;SDS011;14685;50.618;7.024;2023-04-15T13:19:17;4.55;;;4.15;;
27163;SDS011;14685;50.618;7.024;2023-04-15T13:21:43;4.30;;;4.00;;
27163;SDS011;14685;50.618;7.024;2023-04-15T13:24:10;4.85;;;4.40;;
27163;SDS011;14685;50.618;7.024;2023-04-15T13:26:37;4.20;;;3.90;;
27163;SDS011;14685;50.618;7.024;2023-04-15T13:29:04;4.22;;;3.80;;
27163;SDS011;14685;50.618;7.024;2023-04-15T13:31:31;5.22;;;4.82;;
27163;SDS011;14685;50.618;7.024;2023-04-15T13:33:59;4.25;;;3.92;;
27163;SDS011;14685;50.618;7.024;2023-04-15T13:36:30;5.15;;;4.55;;
27163;SDS011;14685;50.618;7.024;2023-04-15T13:38:58;5.43;;;4.93;;
27163;SDS011;14685;50.618;7.024;2023-04-15T13:41:25;6.75;;;5.05;;
27163;SDS011;14685;50.618;7.024;2023-04-15T13:43:52;7.22;;;5.47;;
27163;SDS011;14685;50.618;7.024;2023-04-15T13:46:19;5.22;;;4.72;;
27163;SDS011;14685;50.618;7.024;2023-04-15T13:48:47;4.93;;;4.47;;
27163;SDS011;14685;50.618;7.024;2023-04-15T13:51:15;5.93;;;5.43;;
27163;SDS011;14685;50.618;7.024;2023-04-15T13:53:43;5.32;;;4.43;;
27163;SDS011;14685;50.618;7.024;2023-04-15T13:56:11;5.55;;;5.05;;
27163;SDS011;14685;50.618;7.024;2023-04-15T13:58:39;5.97;;;5.38;;
27163;SDS011;14685;50.618;7.024;2023-04-15T14:01:11;5.88;;;5.38;;
27163;SDS011;14685;50.618;7.024;2023-04-15T14:03:38;5.95;;;5.43;;
27163;SDS011;14685;50.618;7.024;2023-04-15T14:06:05;5.68;;;5.13;;
27163;SDS011;14685;50.618;7.024;2023-04-15T14:08:32;6.93;;;5.78;;
27163;SDS011;14685;50.618;7.024;2023-04-15T14:10:59;6.20;;;5.63;;
27163;SDS011;14685;50.618;7.024;2023-04-15T14:13:26;7.13;;;6.30;;
27163;SDS011;14685;50.618;7.024;2023-04-15T14:15:55;8.02;;;6.45;;
27163;SDS011;14685;50.618;7.024;2023-04-15T14:18:23;12.15;;;9.77;;
27163;SDS011;14685;50.618;7.024;2023-04-15T14:20:50;20.35;;;13.40;;
27163;SDS011;14685;50.618;7.024;2023-04-15T14:23:18;16.80;;;8.93;;
27163;SDS011;14685;50.618;7.024;2023-04-15T14:25:45;8.20;;;4.63;;
27163;SDS011;14685;50.618;7.024;2023-04-15T14:28:13;5.82;;;4.90;;
27163;SDS011;14685;50.618;7.024;2023-04-15T14:30:41;7.05;;;4.88;;
27163;SDS011;14685;50.618;7.024;2023-04-15T14:33:08;6.28;;;5.68;;
27163;SDS011;14685;50.618;7.024;2023-04-15T14:35:35;7.53;;;5.20;;
27163;SDS011;14685;50.618;7.024;2023-04-15T14:38:02;7.45;;;6.63;;
27163;SDS011;14685;50.618;7.024;2023-04-15T14:40:29;8.20;;;7.13;;
27163;SDS011;14685;50.618;7.024;2023-04-15T14:42:56;10.75;;;9.13;;
27163;SDS011;14685;50.618;7.024;2023-04-15T14:45:23;9.90;;;8.82;;
27163;SDS011;14685;50.618;7.024;2023-04-15T14:47:49;12.38;;;11.07;;
27163;SDS011;14685;50.618;7.024;2023-04-15T14:50:18;15.45;;;13.98;;
27163;SDS011;14685;50.618;7.024;2023-04-15T14:52:45;15.50;;;14.05;;
27163;SDS011;14685;50.618;7.024;2023-04-15T14:55:12;12.75;;;11.40;;
27163;SDS011;14685;50.618;7.024;2023-04-15T14:57:40;14.43;;;13.00;;
27163;SDS011;14685;50.618;7.024;2023-04-15T15:00:08;13.52;;;12.32;;
27163;SDS011;14685;50.618;7.024;2023-04-15T15:02:40;15.43;;;12.50;;
27163;SDS011;14685;50.618;7.024;2023-04-15T15:05:08;14.57;;;13.18;;
27163;SDS011;14685;50.618;7.024;2023-04-15T15:07:37;13.95;;;12.65;;